Little Valley, Nevada Weather observations

Data are for 10 minute period ending at time listed.
 Day   Time    Ave.   Ave.  Ave.  Vector   Max.   Total    Solar   
  of    of     Air    Rel.  Wind   Wind    Wind  Precip.   Rad.    
Year   Day     Temp.  Hum.  Speed  Dir.    Gust                    
2015   (PST)    F      %     mph   deg.    mph     in.     W/m2    
------------------------------------------------------------------- 
 123    0:00   50.0    56    8.0   269     19.0    9.64       0  
 123    1:00   51.0    44    3.0   247     18.0    9.64       0  
 123    2:00   50.0    43    7.0   271     16.0    9.64       0  
 123    3:00   48.0    42    2.0    14     15.0    9.64       0  
 123    4:00   47.0    41    3.0   200      9.0    9.64       0  
 123    5:00   48.0    37    4.0   126      9.0    9.64       0  
 123    6:00   41.0    54    2.0    63      8.0    9.64      10  
 123    7:00   54.0    29    5.0   281     13.0    9.64     160  
 123    8:00   57.0    20    7.0   242     18.0    9.64     369  
 123    9:00   60.0    20    4.0   245     15.0    9.64     579  
 123   10:00   60.0    20    5.0   303     13.0    9.64     769  
 123   11:00   62.0    21    5.0   277     11.0    9.64     914  
 123   12:00   64.0    24    7.0   274     14.0    9.64     999  
 123   13:00   65.0    24    6.0   233     16.0    9.64    1015  
 123   14:00   66.0    20    7.0   232     16.0    9.64     976  
 123   15:00   65.0    23    7.0   216     18.0    9.64     866  
 123   16:00   64.0    24   10.0   245     20.0    9.64     704  
 123   17:00   62.0    27   10.0   240     22.0    9.64     514  
 123   18:00   57.0    31    8.0   246     22.0    9.64     267  
 123   19:00   56.0    34   12.0   258     21.0    9.64      69  
 123   20:00   54.0    37   10.0   250     23.0    9.64       9  
 123   21:00   53.0    35    5.0   246     16.0    9.64       0  
 123   22:00   51.0    39    2.0   172     12.0    9.64       0  
 123   23:00   49.0    43    1.0   259     11.0    9.64       0  

Return to Little Valley, Nevada graphs page.


Western Regional Climate Center,wrcc@dri.edu